Disclaimer

Please do not use the information listed here in-flight or in-navigation, as they are not provided to us by the airports but are provided by volunteers, so they might be outdated.

Search


Regions


Airport information page

No radio frequency information is available.

Airport informations:
Latitude: 65° 52' 31.17" N
Longitude: 020° 08' 59.70" E
Elevation: 597 feet - 182 meters
Operating hours: Remarks
Operating agency: Military
Timezone: UTC+1(+2DT) - Last Sunday in March to last Sunday in October
Fuel: Jet fuel avaiable but type is unknown.

Runway information:
11/29 - 7316 x 115 feet< - >2230 x 35 meters

Recent METARs:
ESPE 180820Z AUTO 26003KT 9999 BKN170/// OVC230/// M04/M04 Q1045
ESPE 180850Z AUTO VRB02KT 9999 OVC160/// M04/M04 Q1045
ESPE 180920Z AUTO VRB02KT 9999 OVC160/// M04/M04 Q1045

Airport on the map: